Eau Galle, Wisconsin
Current Conditions -  °F | °C
As of 5:15 AM on Saturday 01 Nov 2014 (Local Time) from KLUM Reporting Station
Clear Clear  
Wind Chill: 21°   Ceiling: Unl
Heat Index: 21°   Visibility: 10mi
Dew Point: 19°   Wind: 0mph
Humidity: 91%   Direction: NA
Pressure: 30.47"   Gusts: NA
Location:  44.69°N, 92.01°W
Report Text: KLUM 011015Z AUTO 00000KT 10SM CLR M06/M07 A3047 RMK AO2 T10631075
Loading
Personal Weather Stations






























Interactive Weather Map
Tropical Storm Tracking
New forecast layout! Learn more

10-Day Weather Forecast

Advertisements
Track Severe Weather on mobile